sensor_id;sensor_type;location;lat;lon;timestamp;P1;durP1;ratioP1;P2;durP2;ratioP2
21091;SDS011;10704;42.678;23.288;2023-04-01T00:01:40;28.70;;;13.15;;
21091;SDS011;10704;42.678;23.288;2023-04-01T00:04:06;22.15;;;12.05;;
21091;SDS011;10704;42.678;23.288;2023-04-01T00:06:32;25.52;;;13.38;;
21091;SDS011;10704;42.678;23.288;2023-04-01T00:08:58;25.98;;;14.43;;
21091;SDS011;10704;42.678;23.288;2023-04-01T00:11:24;30.75;;;15.57;;
21091;SDS011;10704;42.678;23.288;2023-04-01T00:13:52;30.45;;;15.35;;
21091;SDS011;10704;42.678;23.288;2023-04-01T00:16:18;31.65;;;16.08;;
21091;SDS011;10704;42.678;23.288;2023-04-01T00:18:45;38.25;;;17.17;;
21091;SDS011;10704;42.678;23.288;2023-04-01T00:21:12;36.13;;;17.15;;
21091;SDS011;10704;42.678;23.288;2023-04-01T00:23:38;30.98;;;17.05;;
21091;SDS011;10704;42.678;23.288;2023-04-01T00:26:04;27.85;;;17.38;;
21091;SDS011;10704;42.678;23.288;2023-04-01T00:28:30;28.90;;;16.15;;
21091;SDS011;10704;42.678;23.288;2023-04-01T00:30:58;30.33;;;16.55;;
21091;SDS011;10704;42.678;23.288;2023-04-01T00:33:30;26.92;;;16.10;;
21091;SDS011;10704;42.678;23.288;2023-04-01T00:35:55;27.05;;;15.65;;
21091;SDS011;10704;42.678;23.288;2023-04-01T00:38:30;33.75;;;16.30;;
21091;SDS011;10704;42.678;23.288;2023-04-01T00:40:57;32.67;;;17.13;;
21091;SDS011;10704;42.678;23.288;2023-04-01T00:43:23;27.15;;;16.15;;
21091;SDS011;10704;42.678;23.288;2023-04-01T00:45:49;29.70;;;16.08;;
21091;SDS011;10704;42.678;23.288;2023-04-01T00:48:26;26.63;;;15.55;;
21091;SDS011;10704;42.678;23.288;2023-04-01T00:53:30;28.30;;;13.70;;
21091;SDS011;10704;42.678;23.288;2023-04-01T00:56:32;26.42;;;13.75;;
21091;SDS011;10704;42.678;23.288;2023-04-01T00:59:00;31.00;;;15.43;;
21091;SDS011;10704;42.678;23.288;2023-04-01T01:01:30;31.48;;;14.35;;
21091;SDS011;10704;42.678;23.288;2023-04-01T01:03:56;28.65;;;15.15;;
21091;SDS011;10704;42.678;23.288;2023-04-01T01:11:27;22.48;;;11.90;;
21091;SDS011;10704;42.678;23.288;2023-04-01T01:14:45;23.95;;;11.50;;
21091;SDS011;10704;42.678;23.288;2023-04-01T01:22:51;23.20;;;10.52;;
21091;SDS011;10704;42.678;23.288;2023-04-01T01:33:36;17.58;;;8.55;;
21091;SDS011;10704;42.678;23.288;2023-04-01T01:36:29;16.52;;;9.43;;
21091;SDS011;10704;42.678;23.288;2023-04-01T01:39:02;19.70;;;8.63;;
21091;SDS011;10704;42.678;23.288;2023-04-01T01:41:30;15.50;;;8.35;;
21091;SDS011;10704;42.678;23.288;2023-04-01T01:43:57;17.73;;;8.32;;
21091;SDS011;10704;42.678;23.288;2023-04-01T01:46:27;14.52;;;7.90;;
21091;SDS011;10704;42.678;23.288;2023-04-01T01:48:55;13.20;;;7.30;;
21091;SDS011;10704;42.678;23.288;2023-04-01T01:51:23;16.95;;;7.57;;
21091;SDS011;10704;42.678;23.288;2023-04-01T01:53:51;15.65;;;7.65;;
21091;SDS011;10704;42.678;23.288;2023-04-01T01:56:19;12.43;;;6.30;;
21091;SDS011;10704;42.678;23.288;2023-04-01T01:58:58;12.45;;;6.63;;
21091;SDS011;10704;42.678;23.288;2023-04-01T02:01:29;18.70;;;7.93;;
21091;SDS011;10704;42.678;23.288;2023-04-01T02:04:05;16.77;;;7.05;;
21091;SDS011;10704;42.678;23.288;2023-04-01T02:06:34;18.95;;;7.82;;
21091;SDS011;10704;42.678;23.288;2023-04-01T02:09:04;13.55;;;6.65;;
21091;SDS011;10704;42.678;23.288;2023-04-01T02:11:41;17.67;;;6.22;;
21091;SDS011;10704;42.678;23.288;2023-04-01T02:14:24;13.98;;;6.75;;
21091;SDS011;10704;42.678;23.288;2023-04-01T02:16:59;14.77;;;5.20;;
21091;SDS011;10704;42.678;23.288;2023-04-01T02:22:45;13.48;;;6.10;;
21091;SDS011;10704;42.678;23.288;2023-04-01T02:25:14;12.50;;;6.53;;
21091;SDS011;10704;42.678;23.288;2023-04-01T02:27:47;15.20;;;6.28;;
21091;SDS011;10704;42.678;23.288;2023-04-01T02:30:14;13.93;;;6.00;;
21091;SDS011;10704;42.678;23.288;2023-04-01T02:32:41;15.75;;;7.32;;
21091;SDS011;10704;42.678;23.288;2023-04-01T02:35:11;18.13;;;6.72;;
21091;SDS011;10704;42.678;23.288;2023-04-01T02:37:40;11.13;;;6.22;;
21091;SDS011;10704;42.678;23.288;2023-04-01T02:40:08;12.50;;;6.72;;
21091;SDS011;10704;42.678;23.288;2023-04-01T02:42:36;17.05;;;7.05;;
21091;SDS011;10704;42.678;23.288;2023-04-01T02:45:03;16.52;;;8.23;;
21091;SDS011;10704;42.678;23.288;2023-04-01T02:47:30;12.52;;;7.47;;
21091;SDS011;10704;42.678;23.288;2023-04-01T02:49:56;17.48;;;8.27;;
21091;SDS011;10704;42.678;23.288;2023-04-01T02:52:27;14.55;;;8.00;;
21091;SDS011;10704;42.678;23.288;2023-04-01T02:54:55;15.93;;;8.25;;
21091;SDS011;10704;42.678;23.288;2023-04-01T02:57:22;16.67;;;7.63;;
21091;SDS011;10704;42.678;23.288;2023-04-01T02:59:48;15.88;;;8.77;;
21091;SDS011;10704;42.678;23.288;2023-04-01T03:02:15;19.90;;;9.25;;
21091;SDS011;10704;42.678;23.288;2023-04-01T03:04:41;16.38;;;8.13;;
21091;SDS011;10704;42.678;23.288;2023-04-01T03:07:08;21.08;;;9.57;;
21091;SDS011;10704;42.678;23.288;2023-04-01T03:09:36;19.02;;;9.32;;
21091;SDS011;10704;42.678;23.288;2023-04-01T03:12:02;17.90;;;8.80;;
21091;SDS011;10704;42.678;23.288;2023-04-01T03:14:30;20.50;;;9.98;;
21091;SDS011;10704;42.678;23.288;2023-04-01T03:16:56;28.48;;;9.85;;
21091;SDS011;10704;42.678;23.288;2023-04-01T03:19:22;19.27;;;9.98;;
21091;SDS011;10704;42.678;23.288;2023-04-01T03:21:48;21.83;;;10.77;;
21091;SDS011;10704;42.678;23.288;2023-04-01T03:24:15;22.05;;;9.95;;
21091;SDS011;10704;42.678;23.288;2023-04-01T03:26:41;20.50;;;10.30;;
21091;SDS011;10704;42.678;23.288;2023-04-01T03:29:07;21.15;;;9.73;;
21091;SDS011;10704;42.678;23.288;2023-04-01T03:31:33;21.40;;;9.38;;
21091;SDS011;10704;42.678;23.288;2023-04-01T03:33:59;18.30;;;8.93;;
21091;SDS011;10704;42.678;23.288;2023-04-01T03:36:26;22.90;;;9.32;;
21091;SDS011;10704;42.678;23.288;2023-04-01T03:38:52;19.38;;;10.77;;
21091;SDS011;10704;42.678;23.288;2023-04-01T03:41:24;16.55;;;8.85;;
21091;SDS011;10704;42.678;23.288;2023-04-01T03:43:51;18.83;;;8.82;;
21091;SDS011;10704;42.678;23.288;2023-04-01T03:46:19;20.17;;;9.30;;
21091;SDS011;10704;42.678;23.288;2023-04-01T03:48:46;19.45;;;8.57;;
21091;SDS011;10704;42.678;23.288;2023-04-01T03:51:12;20.45;;;8.55;;
21091;SDS011;10704;42.678;23.288;2023-04-01T03:53:38;18.08;;;10.52;;
21091;SDS011;10704;42.678;23.288;2023-04-01T03:56:05;15.75;;;9.10;;
21091;SDS011;10704;42.678;23.288;2023-04-01T03:58:34;17.25;;;9.13;;
21091;SDS011;10704;42.678;23.288;2023-04-01T04:01:02;18.35;;;9.82;;
21091;SDS011;10704;42.678;23.288;2023-04-01T04:03:28;16.02;;;9.52;;
21091;SDS011;10704;42.678;23.288;2023-04-01T04:05:55;18.13;;;9.52;;
21091;SDS011;10704;42.678;23.288;2023-04-01T04:08:21;18.70;;;8.98;;
21091;SDS011;10704;42.678;23.288;2023-04-01T04:10:54;16.40;;;8.63;;
21091;SDS011;10704;42.678;23.288;2023-04-01T04:13:21;19.52;;;9.52;;
21091;SDS011;10704;42.678;23.288;2023-04-01T04:15:53;15.90;;;9.18;;
21091;SDS011;10704;42.678;23.288;2023-04-01T04:18:20;18.83;;;8.05;;
21091;SDS011;10704;42.678;23.288;2023-04-01T04:20:46;19.70;;;10.13;;
21091;SDS011;10704;42.678;23.288;2023-04-01T04:23:15;17.15;;;9.35;;
21091;SDS011;10704;42.678;23.288;2023-04-01T04:25:41;17.70;;;9.60;;
21091;SDS011;10704;42.678;23.288;2023-04-01T04:28:07;20.52;;;11.73;;
21091;SDS011;10704;42.678;23.288;2023-04-01T04:30:33;19.70;;;9.23;;
21091;SDS011;10704;42.678;23.288;2023-04-01T04:33:00;17.73;;;10.27;;
21091;SDS011;10704;42.678;23.288;2023-04-01T04:35:26;22.58;;;10.02;;
21091;SDS011;10704;42.678;23.288;2023-04-01T04:37:52;19.75;;;10.18;;
21091;SDS011;10704;42.678;23.288;2023-04-01T04:40:18;19.52;;;10.32;;
21091;SDS011;10704;42.678;23.288;2023-04-01T04:42:44;17.23;;;8.25;;
21091;SDS011;10704;42.678;23.288;2023-04-01T04:45:13;15.25;;;8.82;;
21091;SDS011;10704;42.678;23.288;2023-04-01T04:47:47;20.98;;;9.30;;
21091;SDS011;10704;42.678;23.288;2023-04-01T04:50:13;18.40;;;8.63;;
21091;SDS011;10704;42.678;23.288;2023-04-01T04:52:39;19.70;;;8.20;;
21091;SDS011;10704;42.678;23.288;2023-04-01T04:55:05;21.27;;;9.98;;
21091;SDS011;10704;42.678;23.288;2023-04-01T04:57:31;16.40;;;7.43;;
21091;SDS011;10704;42.678;23.288;2023-04-01T04:59:57;11.13;;;6.57;;
21091;SDS011;10704;42.678;23.288;2023-04-01T05:02:46;16.10;;;7.72;;
21091;SDS011;10704;42.678;23.288;2023-04-01T05:05:12;16.50;;;7.65;;
21091;SDS011;10704;42.678;23.288;2023-04-01T05:07:38;22.42;;;10.05;;
21091;SDS011;10704;42.678;23.288;2023-04-01T05:10:04;22.13;;;9.25;;
21091;SDS011;10704;42.678;23.288;2023-04-01T05:12:31;17.88;;;9.15;;
21091;SDS011;10704;42.678;23.288;2023-04-01T05:15:02;19.70;;;9.25;;
21091;SDS011;10704;42.678;23.288;2023-04-01T05:17:29;20.55;;;8.82;;
21091;SDS011;10704;42.678;23.288;2023-04-01T05:19:55;21.15;;;9.15;;
21091;SDS011;10704;42.678;23.288;2023-04-01T05:22:22;15.07;;;7.85;;
21091;SDS011;10704;42.678;23.288;2023-04-01T05:24:49;15.90;;;7.38;;
21091;SDS011;10704;42.678;23.288;2023-04-01T05:27:15;13.82;;;6.78;;
21091;SDS011;10704;42.678;23.288;2023-04-01T05:29:42;12.05;;;7.10;;
21091;SDS011;10704;42.678;23.288;2023-04-01T05:32:22;11.10;;;5.75;;
21091;SDS011;10704;42.678;23.288;2023-04-01T05:34:52;15.02;;;6.88;;
21091;SDS011;10704;42.678;23.288;2023-04-01T05:37:18;12.23;;;5.82;;
21091;SDS011;10704;42.678;23.288;2023-04-01T05:39:46;12.77;;;6.97;;
21091;SDS011;10704;42.678;23.288;2023-04-01T05:42:12;20.15;;;6.80;;
21091;SDS011;10704;42.678;23.288;2023-04-01T05:44:39;9.52;;;5.10;;
21091;SDS011;10704;42.678;23.288;2023-04-01T05:47:05;12.63;;;5.80;;
21091;SDS011;10704;42.678;23.288;2023-04-01T05:49:32;14.80;;;5.78;;
21091;SDS011;10704;42.678;23.288;2023-04-01T05:51:59;17.15;;;5.55;;
21091;SDS011;10704;42.678;23.288;2023-04-01T05:54:26;13.60;;;5.90;;
21091;SDS011;10704;42.678;23.288;2023-04-01T05:56:52;15.77;;;6.95;;
21091;SDS011;10704;42.678;23.288;2023-04-01T05:59:19;12.13;;;6.10;;
21091;SDS011;10704;42.678;23.288;2023-04-01T06:01:45;18.75;;;6.78;;
21091;SDS011;10704;42.678;23.288;2023-04-01T06:04:14;12.50;;;6.57;;
21091;SDS011;10704;42.678;23.288;2023-04-01T06:06:42;12.05;;;5.72;;
21091;SDS011;10704;42.678;23.288;2023-04-01T06:14:59;17.40;;;5.85;;
21091;SDS011;10704;42.678;23.288;2023-04-01T06:37:17;10.75;;;3.75;;
21091;SDS011;10704;42.678;23.288;2023-04-01T06:52:23;13.25;;;5.32;;
21091;SDS011;10704;42.678;23.288;2023-04-01T06:58:22;16.00;;;5.65;;
21091;SDS011;10704;42.678;23.288;2023-04-01T07:00:57;12.05;;;5.45;;
21091;SDS011;10704;42.678;23.288;2023-04-01T07:03:30;17.05;;;4.78;;
21091;SDS011;10704;42.678;23.288;2023-04-01T07:06:05;11.60;;;5.20;;
21091;SDS011;10704;42.678;23.288;2023-04-01T07:08:45;13.23;;;5.32;;
21091;SDS011;10704;42.678;23.288;2023-04-01T07:11:22;17.25;;;5.43;;
21091;SDS011;10704;42.678;23.288;2023-04-01T07:19:44;16.23;;;5.00;;
21091;SDS011;10704;42.678;23.288;2023-04-01T07:22:35;12.43;;;5.05;;
21091;SDS011;10704;42.678;23.288;2023-04-01T07:25:18;11.30;;;5.03;;
21091;SDS011;10704;42.678;23.288;2023-04-01T07:28:05;16.00;;;5.40;;
21091;SDS011;10704;42.678;23.288;2023-04-01T07:30:46;14.57;;;6.10;;
21091;SDS011;10704;42.678;23.288;2023-04-01T07:38:47;14.48;;;5.25;;
21091;SDS011;10704;42.678;23.288;2023-04-01T07:41:37;12.57;;;6.10;;
21091;SDS011;10704;42.678;23.288;2023-04-01T07:44:20;16.08;;;6.13;;
21091;SDS011;10704;42.678;23.288;2023-04-01T07:50:09;10.75;;;5.15;;
21091;SDS011;10704;42.678;23.288;2023-04-01T07:52:44;12.05;;;4.55;;
21091;SDS011;10704;42.678;23.288;2023-04-01T08:01:30;12.98;;;5.07;;
21091;SDS011;10704;42.678;23.288;2023-04-01T08:21:01;19.63;;;9.00;;
21091;SDS011;10704;42.678;23.288;2023-04-01T08:23:32;17.95;;;5.85;;
21091;SDS011;10704;42.678;23.288;2023-04-01T08:26:07;16.00;;;6.20;;
21091;SDS011;10704;42.678;23.288;2023-04-01T08:28:48;12.43;;;5.88;;
21091;SDS011;10704;42.678;23.288;2023-04-01T08:31:25;16.10;;;5.85;;
21091;SDS011;10704;42.678;23.288;2023-04-01T08:34:03;19.15;;;7.30;;
21091;SDS011;10704;42.678;23.288;2023-04-01T08:36:38;15.55;;;6.97;;
21091;SDS011;10704;42.678;23.288;2023-04-01T08:39:19;13.32;;;5.93;;
21091;SDS011;10704;42.678;23.288;2023-04-01T09:05:07;10.38;;;4.72;;
21091;SDS011;10704;42.678;23.288;2023-04-01T09:08:08;13.60;;;5.07;;
21091;SDS011;10704;42.678;23.288;2023-04-01T09:22:39;13.05;;;4.40;;
21091;SDS011;10704;42.678;23.288;2023-04-01T09:27:48;12.63;;;4.05;;
21091;SDS011;10704;42.678;23.288;2023-04-01T09:30:27;7.70;;;3.47;;
21091;SDS011;10704;42.678;23.288;2023-04-01T09:38:51;11.68;;;3.90;;
21091;SDS011;10704;42.678;23.288;2023-04-01T09:41:32;10.98;;;3.45;;
21091;SDS011;10704;42.678;23.288;2023-04-01T09:44:22;8.65;;;3.33;;
21091;SDS011;10704;42.678;23.288;2023-04-01T09:47:16;12.43;;;3.67;;
21091;SDS011;10704;42.678;23.288;2023-04-01T09:55:58;12.15;;;4.00;;
21091;SDS011;10704;42.678;23.288;2023-04-01T10:07:07;10.55;;;3.17;;
21091;SDS011;10704;42.678;23.288;2023-04-01T10:10:42;8.13;;;2.67;;
21091;SDS011;10704;42.678;23.288;2023-04-01T10:32:57;10.15;;;3.83;;
21091;SDS011;10704;42.678;23.288;2023-04-01T10:38:49;11.27;;;3.83;;
21091;SDS011;10704;42.678;23.288;2023-04-01T10:48:09;8.23;;;4.00;;
21091;SDS011;10704;42.678;23.288;2023-04-01T10:53:44;12.63;;;3.35;;
21091;SDS011;10704;42.678;23.288;2023-04-01T11:33:19;8.52;;;3.17;;
21091;SDS011;10704;42.678;23.288;2023-04-01T11:36:16;10.82;;;2.20;;
21091;SDS011;10704;42.678;23.288;2023-04-01T11:45:52;13.63;;;2.40;;
21091;SDS011;10704;42.678;23.288;2023-04-01T11:56:55;8.85;;;3.88;;
21091;SDS011;10704;42.678;23.288;2023-04-01T11:59:46;12.48;;;4.18;;
21091;SDS011;10704;42.678;23.288;2023-04-01T12:08:31;10.90;;;3.47;;
21091;SDS011;10704;42.678;23.288;2023-04-01T12:13:28;12.77;;;4.80;;
21091;SDS011;10704;42.678;23.288;2023-04-01T12:19:17;7.05;;;3.28;;
21091;SDS011;10704;42.678;23.288;2023-04-01T12:24:53;12.05;;;6.72;;
21091;SDS011;10704;42.678;23.288;2023-04-01T12:27:43;11.48;;;5.90;;
21091;SDS011;10704;42.678;23.288;2023-04-01T12:30:42;10.25;;;5.55;;
21091;SDS011;10704;42.678;23.288;2023-04-01T12:33:26;13.50;;;5.40;;
21091;SDS011;10704;42.678;23.288;2023-04-01T12:41:59;8.13;;;3.80;;
21091;SDS011;10704;42.678;23.288;2023-04-01T12:45:03;7.32;;;3.60;;
21091;SDS011;10704;42.678;23.288;2023-04-01T12:56:08;8.68;;;3.95;;
21091;SDS011;10704;42.678;23.288;2023-04-01T13:12:28;9.50;;;3.90;;
21091;SDS011;10704;42.678;23.288;2023-04-01T13:15:16;8.43;;;3.45;;
21091;SDS011;10704;42.678;23.288;2023-04-01T13:37:02;7.63;;;4.20;;
21091;SDS011;10704;42.678;23.288;2023-04-01T13:45:33;2.15;;;1.10;;
21091;SDS011;10704;42.678;23.288;2023-04-01T13:53:56;3.05;;;1.13;;
21091;SDS011;10704;42.678;23.288;2023-04-01T14:08:20;3.08;;;1.30;;
21091;SDS011;10704;42.678;23.288;2023-04-01T14:22:38;3.88;;;1.83;;
21091;SDS011;10704;42.678;23.288;2023-04-01T14:30:48;2.92;;;1.23;;
21091;SDS011;10704;42.678;23.288;2023-04-01T14:36:34;3.83;;;1.35;;
21091;SDS011;10704;42.678;23.288;2023-04-01T14:49:50;4.20;;;1.75;;
21091;SDS011;10704;42.678;23.288;2023-04-01T14:52:27;3.65;;;1.73;;
21091;SDS011;10704;42.678;23.288;2023-04-01T14:54:57;2.85;;;1.35;;
21091;SDS011;10704;42.678;23.288;2023-04-01T14:57:25;2.78;;;1.00;;
21091;SDS011;10704;42.678;23.288;2023-04-01T15:08:05;6.15;;;1.60;;
21091;SDS011;10704;42.678;23.288;2023-04-01T15:13:22;6.50;;;2.58;;
21091;SDS011;10704;42.678;23.288;2023-04-01T15:18:51;5.63;;;1.38;;
21091;SDS011;10704;42.678;23.288;2023-04-01T15:21:29;3.40;;;1.25;;
21091;SDS011;10704;42.678;23.288;2023-04-01T15:24:13;3.03;;;1.33;;
21091;SDS011;10704;42.678;23.288;2023-04-01T15:32:32;4.82;;;1.55;;
21091;SDS011;10704;42.678;23.288;2023-04-01T15:43:32;6.10;;;1.52;;
21091;SDS011;10704;42.678;23.288;2023-04-01T15:46:12;4.47;;;1.42;;
21091;SDS011;10704;42.678;23.288;2023-04-01T15:54:32;1.92;;;0.90;;
21091;SDS011;10704;42.678;23.288;2023-04-01T16:17:28;5.25;;;3.13;;
21091;SDS011;10704;42.678;23.288;2023-04-01T16:22:45;7.03;;;3.88;;
21091;SDS011;10704;42.678;23.288;2023-04-01T16:33:04;7.60;;;3.45;;
21091;SDS011;10704;42.678;23.288;2023-04-01T16:35:43;5.90;;;3.42;;
21091;SDS011;10704;42.678;23.288;2023-04-01T16:41:07;7.03;;;2.85;;
21091;SDS011;10704;42.678;23.288;2023-04-01T16:43:45;5.47;;;2.78;;
21091;SDS011;10704;42.678;23.288;2023-04-01T16:51:47;8.93;;;4.00;;
21091;SDS011;10704;42.678;23.288;2023-04-01T16:54:28;8.00;;;3.70;;
21091;SDS011;10704;42.678;23.288;2023-04-01T17:02:26;6.57;;;3.20;;
21091;SDS011;10704;42.678;23.288;2023-04-01T17:05:06;5.55;;;2.30;;
21091;SDS011;10704;42.678;23.288;2023-04-01T17:07:40;7.95;;;4.00;;
21091;SDS011;10704;42.678;23.288;2023-04-01T17:10:57;4.07;;;2.15;;
21091;SDS011;10704;42.678;23.288;2023-04-01T17:13:43;6.43;;;2.22;;
21091;SDS011;10704;42.678;23.288;2023-04-01T17:19:07;5.70;;;2.05;;
21091;SDS011;10704;42.678;23.288;2023-04-01T17:27:14;2.55;;;1.48;;
21091;SDS011;10704;42.678;23.288;2023-04-01T17:30:06;3.45;;;1.80;;
21091;SDS011;10704;42.678;23.288;2023-04-01T17:32:51;3.88;;;1.58;;
21091;SDS011;10704;42.678;23.288;2023-04-01T17:35:39;3.30;;;2.13;;
21091;SDS011;10704;42.678;23.288;2023-04-01T17:38:23;3.33;;;2.05;;
21091;SDS011;10704;42.678;23.288;2023-04-01T17:43:57;3.53;;;2.00;;
21091;SDS011;10704;42.678;23.288;2023-04-01T17:47:03;5.47;;;2.90;;
21091;SDS011;10704;42.678;23.288;2023-04-01T17:54:54;4.22;;;2.40;;
21091;SDS011;10704;42.678;23.288;2023-04-01T17:57:54;5.43;;;2.80;;
21091;SDS011;10704;42.678;23.288;2023-04-01T18:12:14;7.70;;;3.38;;
21091;SDS011;10704;42.678;23.288;2023-04-01T18:17:31;8.40;;;4.38;;
21091;SDS011;10704;42.678;23.288;2023-04-01T18:22:57;10.77;;;4.38;;
21091;SDS011;10704;42.678;23.288;2023-04-01T18:25:34;7.57;;;3.97;;
21091;SDS011;10704;42.678;23.288;2023-04-01T18:28:17;7.00;;;4.15;;
21091;SDS011;10704;42.678;23.288;2023-04-01T18:36:13;11.20;;;6.90;;
21091;SDS011;10704;42.678;23.288;2023-04-01T18:52:40;4.15;;;2.60;;
21091;SDS011;10704;42.678;23.288;2023-04-01T18:55:29;4.38;;;2.00;;
21091;SDS011;10704;42.678;23.288;2023-04-01T18:58:06;3.95;;;2.08;;
21091;SDS011;10704;42.678;23.288;2023-04-01T19:01:33;3.53;;;1.90;;
21091;SDS011;10704;42.678;23.288;2023-04-01T19:03:52;5.28;;;2.70;;
21091;SDS011;10704;42.678;23.288;2023-04-01T19:06:35;3.22;;;2.00;;
21091;SDS011;10704;42.678;23.288;2023-04-01T19:09:19;5.13;;;2.97;;
21091;SDS011;10704;42.678;23.288;2023-04-01T19:18:38;4.53;;;2.67;;
21091;SDS011;10704;42.678;23.288;2023-04-01T19:24:31;2.83;;;1.67;;
21091;SDS011;10704;42.678;23.288;2023-04-01T19:32:24;2.83;;;1.38;;
21091;SDS011;10704;42.678;23.288;2023-04-01T19:35:09;2.85;;;1.60;;
21091;SDS011;10704;42.678;23.288;2023-04-01T19:40:44;2.13;;;1.42;;
21091;SDS011;10704;42.678;23.288;2023-04-01T19:50:58;2.33;;;1.60;;
21091;SDS011;10704;42.678;23.288;2023-04-01T19:53:35;2.75;;;1.40;;
21091;SDS011;10704;42.678;23.288;2023-04-01T19:56:21;3.13;;;1.52;;
21091;SDS011;10704;42.678;23.288;2023-04-01T20:01:58;2.63;;;1.33;;
21091;SDS011;10704;42.678;23.288;2023-04-01T20:05:11;3.40;;;1.88;;
21091;SDS011;10704;42.678;23.288;2023-04-01T20:07:31;2.75;;;1.58;;
21091;SDS011;10704;42.678;23.288;2023-04-01T20:10:09;3.30;;;1.88;;
21091;SDS011;10704;42.678;23.288;2023-04-01T20:15:22;2.78;;;1.58;;
21091;SDS011;10704;42.678;23.288;2023-04-01T20:17:57;3.35;;;1.60;;
21091;SDS011;10704;42.678;23.288;2023-04-01T20:20:28;3.10;;;1.83;;
21091;SDS011;10704;42.678;23.288;2023-04-01T20:23:05;3.38;;;1.73;;
21091;SDS011;10704;42.678;23.288;2023-04-01T20:25:48;3.75;;;1.85;;
21091;SDS011;10704;42.678;23.288;2023-04-01T20:31:18;3.30;;;1.70;;
21091;SDS011;10704;42.678;23.288;2023-04-01T20:34:31;2.45;;;1.60;;
21091;SDS011;10704;42.678;23.288;2023-04-01T20:50:53;3.13;;;1.60;;
21091;SDS011;10704;42.678;23.288;2023-04-01T20:53:34;3.85;;;1.60;;
21091;SDS011;10704;42.678;23.288;2023-04-01T20:56:20;3.17;;;1.70;;
21091;SDS011;10704;42.678;23.288;2023-04-01T21:05:16;3.35;;;1.70;;
21091;SDS011;10704;42.678;23.288;2023-04-01T21:08:02;2.40;;;1.60;;
21091;SDS011;10704;42.678;23.288;2023-04-01T21:10:43;2.78;;;1.42;;
21091;SDS011;10704;42.678;23.288;2023-04-01T21:13:45;3.08;;;1.42;;
21091;SDS011;10704;42.678;23.288;2023-04-01T21:27:47;2.63;;;1.40;;
21091;SDS011;10704;42.678;23.288;2023-04-01T21:30:40;2.70;;;1.10;;
21091;SDS011;10704;42.678;23.288;2023-04-01T21:36:08;1.77;;;1.00;;
21091;SDS011;10704;42.678;23.288;2023-04-01T21:38:47;2.03;;;0.90;;
21091;SDS011;10704;42.678;23.288;2023-04-01T21:44:04;3.85;;;1.73;;
21091;SDS011;10704;42.678;23.288;2023-04-01T21:52:22;3.45;;;1.58;;
21091;SDS011;10704;42.678;23.288;2023-04-01T22:00:23;2.35;;;1.17;;
21091;SDS011;10704;42.678;23.288;2023-04-01T22:05:54;2.83;;;1.10;;
21091;SDS011;10704;42.678;23.288;2023-04-01T22:14:31;5.20;;;1.00;;
21091;SDS011;10704;42.678;23.288;2023-04-01T22:17:19;3.13;;;1.17;;
21091;SDS011;10704;42.678;23.288;2023-04-01T22:19:59;2.03;;;1.08;;
21091;SDS011;10704;42.678;23.288;2023-04-01T22:27:55;3.15;;;1.20;;
21091;SDS011;10704;42.678;23.288;2023-04-01T22:30:38;2.38;;;0.90;;
21091;SDS011;10704;42.678;23.288;2023-04-01T22:33:16;2.33;;;0.82;;
21091;SDS011;10704;42.678;23.288;2023-04-01T22:39:10;2.33;;;0.70;;
21091;SDS011;10704;42.678;23.288;2023-04-01T22:47:30;3.38;;;0.98;;
21091;SDS011;10704;42.678;23.288;2023-04-01T22:50:32;2.15;;;0.98;;
21091;SDS011;10704;42.678;23.288;2023-04-01T22:55:44;2.90;;;1.38;;
21091;SDS011;10704;42.678;23.288;2023-04-01T22:58:14;3.33;;;1.08;;
21091;SDS011;10704;42.678;23.288;2023-04-01T23:00:56;1.85;;;0.85;;
21091;SDS011;10704;42.678;23.288;2023-04-01T23:03:33;2.85;;;1.10;;
21091;SDS011;10704;42.678;23.288;2023-04-01T23:06:04;2.35;;;0.73;;
21091;SDS011;10704;42.678;23.288;2023-04-01T23:08:50;1.92;;;0.77;;
21091;SDS011;10704;42.678;23.288;2023-04-01T23:11:35;2.00;;;1.02;;
21091;SDS011;10704;42.678;23.288;2023-04-01T23:16:47;3.40;;;0.68;;
21091;SDS011;10704;42.678;23.288;2023-04-01T23:19:21;1.60;;;0.90;;
21091;SDS011;10704;42.678;23.288;2023-04-01T23:27:41;0.70;;;0.55;;
21091;SDS011;10704;42.678;23.288;2023-04-01T23:35:48;1.52;;;0.55;;
21091;SDS011;10704;42.678;23.288;2023-04-01T23:38:16;1.52;;;0.60;;
21091;SDS011;10704;42.678;23.288;2023-04-01T23:40:43;1.73;;;0.70;;
21091;SDS011;10704;42.678;23.288;2023-04-01T23:43:17;0.70;;;0.55;;
21091;SDS011;10704;42.678;23.288;2023-04-01T23:45:50;0.57;;;0.40;;
21091;SDS011;10704;42.678;23.288;2023-04-01T23:48:18;3.00;;;0.73;;
21091;SDS011;10704;42.678;23.288;2023-04-01T23:50:47;0.93;;;0.50;;
21091;SDS011;10704;42.678;23.288;2023-04-01T23:55:41;1.05;;;0.60;;
